This demonstration page uses our WeatherBlox Daily Observations layout. Learn more.

Left ArrowRight Arrow

Hourly Observations for September 30, 2015

Temp ( °F °C ) Dew Point ( °F °C ) Humidity (%) Winds ( mph kmh ) Pressure ( in mb ) Visibility ( mi km ) Precip ( " mm )
12:51 am 00:51 Clear 69 20.6 54 12.2 59 59 E 3 6 29.8 1009 10 16.0934 0 0
1:51 am 01:51 Clear 67 19.4 54 12.2 63 63 Calm 29.8 1009 10 16.0934 0 0
2:51 am 02:51 Clear 67 19.4 55 12.8 66 66 SSE 5 7 29.8 1009 10 16.0934 0 0
3:51 am 03:51 Clear 64 17.8 55 12.8 73 73 SE 6 9 29.81 1010 10 16.0934 0 0
4:51 am 04:51 Clear 64 17.8 54 12.2 70 70 SE 5 7 29.83 1010 10 16.0934 0 0
5:51 am 05:51 Clear 63 17.2 54 12.2 73 73 ESE 3 6 29.85 1011 10 16.0934 0 0
6:51 am 06:51 Sunny 66 18.9 51 10.6 59 59 SSE 7 11 29.88 1012 10 16.0934 0 0
7:51 am 07:51 Sunny 74 23.3 53 11.7 48 48 SSE 7 11 29.89 1012 10 16.0934 0 0
8:51 am 08:51 Sunny 81 27.2 50 10 34 34 SE 13 20 29.89 1012 10 16.0934 0 0
9:51 am 09:51 Sunny 84 28.9 49 9.4 30 30 SE 13 20 29.9 1012 10 16.0934 0 0
10:51 am 10:51 Sunny 88 31.1 49 9.4 26 26 ESE 8 13 29.89 1012 10 16.0934 0 0
11:51 am 11:51 Sunny 91 32.8 50 10 25 25 undefined N/A 29.87 1011 10 16.0934 0 0
12:51 pm 12:51 Sunny 93 33.9 50 10 23 23 SE 10 17 29.83 1010 10 16.0934 0 0
1:51 pm 13:51 Sunny 96 35.6 47 8.3 19 19 SSE 9 15 29.8 1009 10 16.0934 0 0
2:51 pm 14:51 Sunny 97 36.1 45 7.2 17 17 SSE 10 17 29.78 1008 10 16.0934 0 0
3:51 pm 15:51 Sunny 98 36.7 43 6.1 15 15 N 6 9 29.77 1008 10 16.0934 0 0
4:51 pm 16:51 Sunny 97 36.1 44 6.7 16 16 NNE 6 9 29.76 1008 10 16.0934 0 0
5:51 pm 17:51 Sunny 92 33.3 49 9.4 23 23 ENE 3 6 29.77 1008 10 16.0934 0 0
6:51 pm 18:51 Clear 83 28.3 50 10 32 32 NNE 6 9 29.8 1009 10 16.0934 0 0
7:51 pm 19:51 Clear 82 27.8 49 9.4 32 32 NW 6 9 29.8 1009 10 16.0934 0 0
8:51 pm 20:51 Clear 78 25.6 52 11.1 40 40 Calm 29.81 1010 10 16.0934 0 0
9:51 pm 21:51 Clear 77 25 51 10.6 40 40 ESE 5 7 29.82 1010 10 16.0934 0 0
10:51 pm 22:51 Clear 74 23.3 51 10.6 45 45 ESE 3 6 29.82 1010 10 16.0934 0 0
11:51 pm 23:51 Clear 72 22.2 51 10.6 48 48 NE 6 9 29.82 1010 10 16.0934 0 0

Powered by AerisWeather